createdAt,value
2023-02-23T00:00:44.515Z,0.00
2023-02-23T00:01:44.498Z,0.00
2023-02-23T00:02:44.578Z,0.00
2023-02-23T00:03:44.497Z,0.00
2023-02-23T00:04:44.470Z,0.00
2023-02-23T00:05:44.472Z,0.00
2023-02-23T00:06:44.546Z,0.00
2023-02-23T00:07:44.425Z,0.00
2023-02-23T00:08:44.423Z,0.00
2023-02-23T00:09:44.402Z,0.00
2023-02-23T00:10:44.391Z,0.00
2023-02-23T00:11:44.398Z,0.00
2023-02-23T00:12:44.365Z,0.00
2023-02-23T00:13:44.386Z,0.00
2023-02-23T00:14:44.354Z,0.00
2023-02-23T00:15:44.334Z,0.00
2023-02-23T00:16:44.406Z,0.00
2023-02-23T00:17:44.334Z,0.00
2023-02-23T00:18:44.349Z,0.00
2023-02-23T00:19:44.292Z,0.00
2023-02-23T00:20:44.281Z,0.00
2023-02-23T00:21:44.275Z,0.00
2023-02-23T00:22:44.279Z,0.00
2023-02-23T00:23:44.252Z,0.00
2023-02-23T00:24:44.236Z,0.00
2023-02-23T00:25:44.236Z,0.00
2023-02-23T00:26:44.234Z,0.00
2023-02-23T00:27:44.221Z,0.00
2023-02-23T00:28:44.198Z,0.00
2023-02-23T00:29:44.201Z,0.00
2023-02-23T00:30:44.179Z,0.00
2023-02-23T00:31:44.342Z,0.00
2023-02-23T00:32:44.235Z,0.00
2023-02-23T00:33:44.151Z,0.00
2023-02-23T00:34:44.138Z,0.00
2023-02-23T00:35:44.117Z,0.00
2023-02-23T00:36:44.100Z,0.00
2023-02-23T00:37:44.096Z,0.00
2023-02-23T00:38:44.097Z,0.00
2023-02-23T00:39:44.093Z,0.00
2023-02-23T00:40:44.070Z,0.00
2023-02-23T00:41:44.052Z,0.00
2023-02-23T00:42:44.049Z,0.00
2023-02-23T00:43:44.061Z,0.00
2023-02-23T00:44:44.018Z,0.00
2023-02-23T00:45:44.104Z,0.00
2023-02-23T00:46:44.010Z,0.00
2023-02-23T00:47:43.999Z,0.00
2023-02-23T00:48:43.976Z,0.00
2023-02-23T00:49:43.986Z,0.00
2023-02-23T00:50:43.961Z,0.00
2023-02-23T00:51:43.955Z,0.00
2023-02-23T00:52:43.939Z,0.00
2023-02-23T00:53:43.942Z,0.00
2023-02-23T00:54:43.945Z,0.00
2023-02-23T00:55:43.900Z,0.00
2023-02-23T00:56:43.900Z,0.00
2023-02-23T00:57:43.911Z,0.00
2023-02-23T00:58:43.869Z,0.00
2023-02-23T00:59:43.871Z,0.00
2023-02-23T01:00:43.864Z,0.00
2023-02-23T01:01:44.024Z,0.00
2023-02-23T01:02:43.982Z,0.00
2023-02-23T01:03:43.825Z,0.00
2023-02-23T01:04:43.822Z,0.00
2023-02-23T01:05:43.801Z,0.00
2023-02-23T01:06:43.784Z,0.00
2023-02-23T01:07:43.784Z,0.00
2023-02-23T01:08:43.768Z,0.00
2023-02-23T01:09:43.751Z,0.00
2023-02-23T01:10:43.744Z,0.00
2023-02-23T01:11:43.731Z,0.00
2023-02-23T01:12:43.711Z,0.00
2023-02-23T01:13:43.707Z,0.00
2023-02-23T01:14:43.696Z,0.00
2023-02-23T01:15:43.857Z,0.00
2023-02-23T01:16:43.664Z,0.00
2023-02-23T01:17:43.712Z,0.00
2023-02-23T01:18:43.653Z,0.00
2023-02-23T01:19:43.643Z,0.00
2023-02-23T01:20:43.620Z,0.00
2023-02-23T01:21:43.629Z,0.00
2023-02-23T01:22:43.606Z,0.00
2023-02-23T01:23:43.584Z,0.00
2023-02-23T01:24:43.580Z,0.00
2023-02-23T01:25:43.570Z,0.00
2023-02-23T01:26:43.566Z,0.00
2023-02-23T01:27:43.553Z,0.00
2023-02-23T01:28:43.546Z,0.00
2023-02-23T01:29:43.523Z,0.00
2023-02-23T01:30:43.668Z,0.00
2023-02-23T01:31:43.732Z,0.00
2023-02-23T01:32:43.537Z,0.00
2023-02-23T01:33:43.510Z,0.00
2023-02-23T01:34:43.467Z,0.00
2023-02-23T01:35:43.465Z,0.00
2023-02-23T01:36:43.483Z,0.00
2023-02-23T01:37:43.451Z,0.00
2023-02-23T01:38:43.423Z,0.00
2023-02-23T01:39:43.419Z,0.00
2023-02-23T01:40:43.399Z,0.00
2023-02-23T01:41:43.413Z,0.00
2023-02-23T01:42:43.399Z,0.00
2023-02-23T01:43:43.380Z,0.00
2023-02-23T01:44:43.363Z,0.00
2023-02-23T01:45:43.354Z,0.00
2023-02-23T01:46:43.351Z,0.00
2023-02-23T01:47:51.896Z,0.00
2023-02-23T01:48:43.319Z,0.00
2023-02-23T01:49:43.360Z,0.00
2023-02-23T01:50:43.307Z,0.00
2023-02-23T01:51:43.301Z,0.00
2023-02-23T01:52:43.276Z,0.00
2023-02-23T01:53:43.256Z,0.00
2023-02-23T01:54:43.271Z,0.00
2023-02-23T01:55:43.248Z,0.00
2023-02-23T01:56:43.235Z,0.00
2023-02-23T01:57:43.218Z,0.00
2023-02-23T01:58:43.202Z,0.00
2023-02-23T01:59:43.252Z,0.00
2023-02-23T02:00:43.200Z,0.00
2023-02-23T02:01:43.293Z,0.00
2023-02-23T02:02:43.166Z,0.00
2023-02-23T02:03:43.158Z,0.00
2023-02-23T02:04:43.164Z,0.00
2023-02-23T02:05:43.172Z,0.00
2023-02-23T02:06:43.126Z,0.00
2023-02-23T02:07:43.107Z,0.00
2023-02-23T02:08:43.125Z,0.00
2023-02-23T02:09:43.088Z,0.00
2023-02-23T02:10:43.158Z,0.00
2023-02-23T02:11:43.074Z,0.00
2023-02-23T02:12:43.071Z,0.00
2023-02-23T02:13:43.046Z,0.00
2023-02-23T02:14:43.039Z,0.00
2023-02-23T02:15:43.896Z,0.00
2023-02-23T02:16:43.037Z,0.00
2023-02-23T02:17:43.020Z,0.00
2023-02-23T02:18:43.001Z,0.00
2023-02-23T02:19:42.979Z,0.00
2023-02-23T02:20:43.039Z,0.00
2023-02-23T02:21:42.974Z,0.00
2023-02-23T02:22:42.950Z,0.00
2023-02-23T02:23:42.940Z,0.00
2023-02-23T02:24:43.006Z,0.00
2023-02-23T02:25:42.930Z,0.00
2023-02-23T02:26:42.923Z,0.00
2023-02-23T02:27:42.897Z,0.00
2023-02-23T02:28:42.884Z,0.00
2023-02-23T02:29:42.879Z,0.00
2023-02-23T02:30:42.953Z,0.00
2023-02-23T02:31:42.969Z,0.00
2023-02-23T02:32:45.754Z,0.00
2023-02-23T02:33:42.838Z,0.00
2023-02-23T02:34:42.819Z,0.00
2023-02-23T02:35:42.808Z,0.00
2023-02-23T02:36:42.809Z,0.00
2023-02-23T02:37:42.818Z,0.00
2023-02-23T02:38:42.793Z,0.00
2023-02-23T02:39:42.767Z,0.00
2023-02-23T02:40:42.760Z,0.00
2023-02-23T02:41:42.740Z,0.00
2023-02-23T02:42:42.751Z,0.00
2023-02-23T02:43:42.727Z,0.00
2023-02-23T02:44:42.710Z,0.00
2023-02-23T02:45:42.711Z,0.00
2023-02-23T02:46:42.701Z,0.00
2023-02-23T02:47:42.709Z,0.00
2023-02-23T02:48:42.668Z,0.00
2023-02-23T02:49:42.666Z,0.00
2023-02-23T02:50:42.650Z,0.00
2023-02-23T02:51:42.664Z,0.00
2023-02-23T02:52:42.626Z,0.00
2023-02-23T02:53:42.651Z,0.00
2023-02-23T02:54:42.614Z,0.00
2023-02-23T02:55:42.597Z,0.00
2023-02-23T02:56:42.580Z,0.00
2023-02-23T02:57:42.571Z,0.00
2023-02-23T02:58:42.591Z,0.00
2023-02-23T02:59:42.553Z,0.00
2023-02-23T03:00:42.557Z,0.00
2023-02-23T03:01:42.623Z,0.00
2023-02-23T03:02:42.518Z,0.00
2023-02-23T03:03:42.517Z,0.00
2023-02-23T03:04:42.523Z,0.00
2023-02-23T03:05:42.497Z,0.00
2023-02-23T03:06:42.475Z,0.00
2023-02-23T03:07:42.472Z,0.00
2023-02-23T03:08:42.456Z,0.00
2023-02-23T03:09:42.570Z,0.00
2023-02-23T03:10:42.438Z,0.00
2023-02-23T03:11:42.425Z,0.00
2023-02-23T03:12:42.419Z,0.00
2023-02-23T03:13:42.418Z,0.00
2023-02-23T03:14:42.410Z,0.00
2023-02-23T03:15:42.482Z,0.00
2023-02-23T03:16:42.380Z,0.00
2023-02-23T03:17:42.366Z,0.00
2023-02-23T03:18:42.364Z,0.00
2023-02-23T03:19:42.340Z,0.00
2023-02-23T03:20:42.351Z,0.00
2023-02-23T03:21:42.328Z,0.00
2023-02-23T03:22:42.330Z,0.00
2023-02-23T03:23:42.305Z,0.00
2023-02-23T03:24:42.283Z,0.00
2023-02-23T03:25:42.329Z,0.00
2023-02-23T03:26:42.295Z,0.00
2023-02-23T03:27:42.261Z,0.00
2023-02-23T03:28:42.258Z,0.00
2023-02-23T03:29:42.239Z,0.00
2023-02-23T03:30:42.314Z,0.00
2023-02-23T03:31:42.335Z,0.00
2023-02-23T03:32:42.245Z,0.00
2023-02-23T03:33:42.203Z,0.00
2023-02-23T03:34:42.187Z,0.00
2023-02-23T03:35:42.177Z,0.00
2023-02-23T03:36:42.175Z,0.00
2023-02-23T03:37:42.151Z,0.00
2023-02-23T03:38:42.137Z,0.00
2023-02-23T03:39:42.134Z,0.00
2023-02-23T03:40:42.128Z,0.00
2023-02-23T03:41:42.146Z,0.00
2023-02-23T03:42:42.092Z,0.00
2023-02-23T03:43:42.084Z,0.00
2023-02-23T03:44:42.081Z,0.00
2023-02-23T03:45:42.172Z,0.00
2023-02-23T03:46:42.048Z,0.00
2023-02-23T03:47:42.075Z,0.00
2023-02-23T03:48:42.050Z,0.00
2023-02-23T03:49:42.041Z,0.00
2023-02-23T03:50:42.009Z,0.00
2023-02-23T03:51:42.004Z,0.00
2023-02-23T03:52:41.994Z,0.00
2023-02-23T03:53:41.996Z,0.00
2023-02-23T03:54:41.962Z,0.00
2023-02-23T03:55:41.986Z,0.00
2023-02-23T03:56:41.939Z,0.00
2023-02-23T03:57:41.958Z,0.00
2023-02-23T03:58:41.920Z,0.00
2023-02-23T03:59:41.918Z,0.00
2023-02-23T04:00:41.906Z,0.00
2023-02-23T04:01:41.942Z,0.00
2023-02-23T04:02:41.873Z,0.00
2023-02-23T04:03:41.960Z,0.00
2023-02-23T04:04:41.857Z,0.00
2023-02-23T04:05:41.860Z,0.00
2023-02-23T04:06:41.845Z,0.00
2023-02-23T04:07:41.826Z,0.00
2023-02-23T04:08:41.819Z,0.00
2023-02-23T04:09:41.821Z,0.00
2023-02-23T04:10:41.808Z,0.00
2023-02-23T04:11:41.799Z,0.00
2023-02-23T04:12:41.760Z,0.00
2023-02-23T04:13:41.768Z,0.00
2023-02-23T04:14:41.742Z,0.00
2023-02-23T04:15:41.746Z,0.00
2023-02-23T04:16:41.823Z,0.00
2023-02-23T04:17:41.730Z,0.00
2023-02-23T04:18:41.737Z,0.00
2023-02-23T04:19:41.704Z,0.00
2023-02-23T04:20:41.837Z,0.00
2023-02-23T04:21:41.697Z,0.00
2023-02-23T04:22:41.663Z,0.00
2023-02-23T04:23:41.715Z,0.00
2023-02-23T04:24:41.647Z,0.00
2023-02-23T04:25:41.625Z,0.00
2023-02-23T04:26:41.671Z,0.00
2023-02-23T04:27:41.648Z,0.00
2023-02-23T04:28:41.651Z,0.00
2023-02-23T04:29:41.618Z,0.00
2023-02-23T04:30:41.586Z,0.00
2023-02-23T04:31:41.689Z,0.00
2023-02-23T04:32:41.714Z,0.00
2023-02-23T04:33:41.539Z,0.00
2023-02-23T04:34:41.532Z,0.00
2023-02-23T04:35:41.528Z,0.00
2023-02-23T04:36:41.535Z,0.00
2023-02-23T04:37:41.501Z,0.00
2023-02-23T04:38:41.488Z,0.00
2023-02-23T04:39:41.479Z,0.00
2023-02-23T04:40:41.476Z,0.00
2023-02-23T04:41:41.481Z,0.00
2023-02-23T04:42:41.454Z,0.00
2023-02-23T04:43:41.458Z,0.00
2023-02-23T04:44:41.420Z,0.00
2023-02-23T04:45:41.497Z,0.00
2023-02-23T04:46:41.417Z,0.00
2023-02-23T04:47:41.407Z,0.00
2023-02-23T04:48:41.416Z,0.00
2023-02-23T04:49:41.380Z,0.00
2023-02-23T04:50:41.365Z,0.00
2023-02-23T04:51:41.356Z,0.00
2023-02-23T04:52:41.351Z,0.00
2023-02-23T04:53:41.334Z,0.00
2023-02-23T04:54:41.346Z,0.00
2023-02-23T04:55:41.320Z,0.00
2023-02-23T04:56:41.296Z,0.00
2023-02-23T04:57:41.284Z,0.00
2023-02-23T04:58:41.327Z,0.00
2023-02-23T04:59:41.298Z,0.00
2023-02-23T05:00:41.262Z,0.00
2023-02-23T05:01:41.349Z,0.00
2023-02-23T05:02:41.238Z,0.00
2023-02-23T05:03:41.252Z,0.00
2023-02-23T05:04:41.267Z,0.00
2023-02-23T05:05:41.234Z,0.00
2023-02-23T05:06:41.196Z,0.00
2023-02-23T05:07:41.212Z,0.00
2023-02-23T05:08:41.168Z,0.00
2023-02-23T05:09:41.451Z,0.00
2023-02-23T05:10:41.171Z,0.00
2023-02-23T05:11:41.143Z,0.00
2023-02-23T05:12:41.135Z,0.00
2023-02-23T05:13:41.131Z,0.00
2023-02-23T05:14:41.118Z,0.00
2023-02-23T05:15:41.188Z,0.00
2023-02-23T05:16:41.095Z,0.00
2023-02-23T05:17:41.104Z,0.00
2023-02-23T05:18:41.062Z,0.00
2023-02-23T05:19:41.067Z,0.00
2023-02-23T05:20:41.069Z,0.00
2023-02-23T05:21:41.056Z,0.00
2023-02-23T05:22:41.027Z,0.00
2023-02-23T05:23:41.014Z,0.00
2023-02-23T05:24:40.996Z,0.00
2023-02-23T05:25:40.987Z,0.00
2023-02-23T05:26:41.004Z,0.00
2023-02-23T05:27:40.981Z,0.00
2023-02-23T05:28:40.969Z,0.00
2023-02-23T05:29:40.945Z,0.00
2023-02-23T05:30:40.964Z,0.00
2023-02-23T05:31:41.068Z,0.00
2023-02-23T05:32:40.928Z,0.00
2023-02-23T05:33:40.930Z,0.00
2023-02-23T05:34:40.898Z,0.00
2023-02-23T05:35:40.895Z,0.00
2023-02-23T05:36:40.973Z,0.00
2023-02-23T05:37:40.878Z,0.00
2023-02-23T05:38:40.848Z,0.00
2023-02-23T05:39:40.840Z,0.00
2023-02-23T05:40:40.822Z,0.00
2023-02-23T05:41:40.815Z,4.00
2023-02-23T05:42:40.822Z,4.00
2023-02-23T05:43:40.817Z,0.00
2023-02-23T05:44:40.781Z,4.00
2023-02-23T05:45:40.773Z,8.00
2023-02-23T05:46:40.761Z,4.00
2023-02-23T05:47:40.752Z,4.00
2023-02-23T05:48:40.766Z,8.00
2023-02-23T05:49:40.758Z,8.00
2023-02-23T05:50:40.718Z,12.00
2023-02-23T05:51:40.713Z,12.00
2023-02-23T05:52:40.699Z,16.00
2023-02-23T05:53:40.703Z,16.00
2023-02-23T05:54:40.712Z,20.00
2023-02-23T05:55:40.660Z,24.00
2023-02-23T05:56:40.658Z,24.00
2023-02-23T05:57:40.643Z,32.00
2023-02-23T05:58:40.651Z,32.00
2023-02-23T05:59:40.652Z,36.00
2023-02-23T06:00:40.617Z,44.00
2023-02-23T06:01:40.608Z,48.00
2023-02-23T06:02:40.622Z,52.00
2023-02-23T06:03:40.614Z,56.00
2023-02-23T06:04:40.602Z,64.00
2023-02-23T06:05:40.674Z,68.00
2023-02-23T06:06:40.549Z,76.00
2023-02-23T06:07:40.547Z,80.00
2023-02-23T06:08:40.534Z,84.00
2023-02-23T06:09:41.321Z,96.00
2023-02-23T06:10:40.535Z,104.00
2023-02-23T06:11:40.505Z,112.00
2023-02-23T06:12:40.590Z,120.00
2023-02-23T06:13:40.486Z,136.00
2023-02-23T06:14:40.470Z,144.00
2023-02-23T06:15:40.510Z,160.00
2023-02-23T06:16:40.585Z,172.00
2023-02-23T06:17:40.437Z,188.00
2023-02-23T06:18:40.456Z,200.00
2023-02-23T06:19:40.411Z,212.00
2023-02-23T06:20:40.549Z,228.00
2023-02-23T06:21:40.524Z,248.00
2023-02-23T06:22:40.450Z,260.00
2023-02-23T06:23:40.368Z,276.00
2023-02-23T06:24:40.368Z,296.00
2023-02-23T06:25:40.383Z,312.00
2023-02-23T06:26:40.355Z,332.00
2023-02-23T06:27:40.324Z,352.00
2023-02-23T06:28:40.316Z,372.00
2023-02-23T06:29:40.304Z,388.00
2023-02-23T06:30:40.307Z,412.00
2023-02-23T06:31:40.392Z,436.00
2023-02-23T06:32:40.352Z,460.00
2023-02-23T06:33:40.271Z,480.00
2023-02-23T06:34:40.345Z,504.00
2023-02-23T06:35:40.236Z,528.00
2023-02-23T06:36:40.254Z,544.00
2023-02-23T06:37:40.253Z,560.00
2023-02-23T06:38:40.209Z,572.00
2023-02-23T06:39:40.248Z,584.00
2023-02-23T06:40:40.203Z,596.00
2023-02-23T06:41:40.177Z,604.00
2023-02-23T06:42:40.193Z,608.00
2023-02-23T06:43:40.174Z,616.00
2023-02-23T06:44:40.169Z,624.00
2023-02-23T06:45:40.131Z,632.00
2023-02-23T06:46:40.200Z,648.00
2023-02-23T06:47:40.145Z,660.00
2023-02-23T06:48:40.094Z,676.00
2023-02-23T06:49:40.112Z,692.00
2023-02-23T06:50:40.090Z,716.00
2023-02-23T06:51:40.077Z,744.00
2023-02-23T06:52:40.062Z,764.00
2023-02-23T06:53:40.098Z,792.00
2023-02-23T06:54:40.070Z,816.00
2023-02-23T06:55:40.065Z,844.00
2023-02-23T06:56:40.060Z,872.00
2023-02-23T06:57:40.005Z,900.00
2023-02-23T06:58:40.020Z,928.00
2023-02-23T06:59:39.976Z,956.00
2023-02-23T07:00:39.980Z,984.00
2023-02-23T07:01:39.991Z,1024.00
2023-02-23T07:02:39.942Z,1060.00
2023-02-23T07:03:40.037Z,1100.00
2023-02-23T07:04:39.936Z,1140.00
2023-02-23T07:05:39.921Z,1184.00
2023-02-23T07:06:39.918Z,1232.00
2023-02-23T07:07:39.897Z,1280.00
2023-02-23T07:08:39.905Z,1332.00
2023-02-23T07:09:39.958Z,1384.00
2023-02-23T07:10:39.879Z,1432.00
2023-02-23T07:11:39.855Z,1476.00
2023-02-23T07:12:39.856Z,1524.00
2023-02-23T07:13:39.836Z,1564.00
2023-02-23T07:14:39.815Z,1604.00
2023-02-23T07:15:39.799Z,1628.00
2023-02-23T07:16:39.846Z,1644.00
2023-02-23T07:17:39.791Z,1656.00
2023-02-23T07:18:39.784Z,1664.00
2023-02-23T07:19:39.785Z,1668.00
2023-02-23T07:20:39.759Z,1672.00
2023-02-23T07:21:39.763Z,1684.00
2023-02-23T07:22:40.148Z,1696.00
2023-02-23T07:23:39.721Z,1700.00
2023-02-23T07:24:39.721Z,1716.00
2023-02-23T07:25:39.730Z,1708.00
2023-02-23T07:26:39.680Z,1700.00
2023-02-23T07:27:39.703Z,1688.00
2023-02-23T07:28:39.688Z,1660.00
2023-02-23T07:29:39.648Z,1628.00
2023-02-23T07:30:39.674Z,1600.00
2023-02-23T07:31:39.818Z,1584.00
2023-02-23T07:32:39.702Z,1568.00
2023-02-23T07:33:39.631Z,1556.00
2023-02-23T07:34:39.601Z,1568.00
2023-02-23T07:35:39.593Z,1588.00
2023-02-23T07:36:39.582Z,1620.00
2023-02-23T07:37:39.598Z,1664.00
2023-02-23T07:38:39.561Z,1712.00
2023-02-23T07:39:39.556Z,1764.00
2023-02-23T07:40:39.538Z,1828.00
2023-02-23T07:41:39.555Z,1888.00
2023-02-23T07:42:39.526Z,1952.00
2023-02-23T07:43:39.510Z,2012.00
2023-02-23T07:44:39.512Z,2072.00
2023-02-23T07:45:39.520Z,2128.00
2023-02-23T07:46:39.471Z,2192.00
2023-02-23T07:47:39.496Z,2252.00
2023-02-23T07:48:39.473Z,2324.00
2023-02-23T07:49:39.473Z,2404.00
2023-02-23T07:50:39.438Z,2500.00
2023-02-23T07:51:39.418Z,2608.00
2023-02-23T07:52:39.414Z,2720.00
2023-02-23T07:53:39.408Z,2836.00
2023-02-23T07:54:39.387Z,2944.00
2023-02-23T07:55:39.393Z,3048.00
2023-02-23T07:56:39.375Z,3144.00
2023-02-23T07:57:39.372Z,3228.00
2023-02-23T07:58:39.370Z,3300.00
2023-02-23T07:59:39.374Z,3356.00
2023-02-23T08:00:39.346Z,3380.00
2023-02-23T08:01:39.369Z,3388.00
2023-02-23T08:02:39.304Z,3416.00
2023-02-23T08:03:39.321Z,3480.00
2023-02-23T08:04:39.379Z,3560.00
2023-02-23T08:05:39.301Z,3640.00
2023-02-23T08:06:39.275Z,3708.00
2023-02-23T08:07:39.252Z,3764.00
2023-02-23T08:08:39.238Z,3844.00
2023-02-23T08:09:39.237Z,3944.00
2023-02-23T08:10:39.226Z,4048.00
2023-02-23T08:11:39.212Z,4144.00
2023-02-23T08:12:39.257Z,4240.00
2023-02-23T08:13:39.210Z,4316.00
2023-02-23T08:14:39.207Z,4376.00
2023-02-23T08:15:39.172Z,4432.00
2023-02-23T08:16:39.165Z,4472.00
2023-02-23T08:17:39.143Z,4508.00
2023-02-23T08:18:39.188Z,4500.00
2023-02-23T08:19:39.123Z,4452.00
2023-02-23T08:20:39.109Z,4432.00
2023-02-23T08:21:39.116Z,4452.00
2023-02-23T08:22:48.886Z,4472.00
2023-02-23T08:23:40.076Z,4484.00
2023-02-23T08:24:39.066Z,4488.00
2023-02-23T08:25:39.054Z,4500.00
2023-02-23T08:26:39.052Z,4500.00
2023-02-23T08:27:39.043Z,4516.00
2023-02-23T08:28:39.019Z,4532.00
2023-02-23T08:29:39.062Z,4572.00
2023-02-23T08:30:39.084Z,4600.00
2023-02-23T08:31:39.249Z,4636.00
2023-02-23T08:32:39.004Z,4688.00
2023-02-23T08:33:38.977Z,4728.00
2023-02-23T08:34:38.960Z,4764.00
2023-02-23T08:35:38.966Z,4844.00
2023-02-23T08:36:38.964Z,4952.00
2023-02-23T08:37:38.923Z,5056.00
2023-02-23T08:38:38.929Z,5176.00
2023-02-23T08:39:38.908Z,5256.00
2023-02-23T08:40:38.892Z,5276.00
2023-02-23T08:41:38.899Z,5220.00
2023-02-23T08:42:38.882Z,5176.00
2023-02-23T08:43:38.861Z,5120.00
2023-02-23T08:44:38.858Z,5072.00
2023-02-23T08:45:38.850Z,5032.00
2023-02-23T08:46:38.821Z,4980.00
2023-02-23T08:47:38.820Z,4888.00
2023-02-23T08:48:38.806Z,4808.00
2023-02-23T08:49:38.800Z,4728.00
2023-02-23T08:50:38.789Z,4640.00
2023-02-23T08:51:38.786Z,4560.00
2023-02-23T08:52:38.753Z,4472.00
2023-02-23T08:53:38.766Z,4420.00
2023-02-23T08:54:38.739Z,4400.00
2023-02-23T08:55:38.725Z,4428.00
2023-02-23T08:56:38.710Z,4448.00
2023-02-23T08:57:38.720Z,4436.00
2023-02-23T08:58:38.711Z,4424.00
2023-02-23T08:59:38.685Z,4444.00
2023-02-23T09:00:38.676Z,4504.00
2023-02-23T09:01:38.830Z,4560.00
2023-02-23T09:02:38.654Z,4628.00
2023-02-23T09:03:40.532Z,4728.00
2023-02-23T09:04:38.675Z,4812.00
2023-02-23T09:05:38.659Z,4888.00
2023-02-23T09:06:38.607Z,4960.00
2023-02-23T09:07:38.592Z,5068.00
2023-02-23T09:08:38.588Z,5144.00
2023-02-23T09:09:38.587Z,5212.00
2023-02-23T09:10:38.553Z,5260.00
2023-02-23T09:11:38.553Z,5308.00
2023-02-23T09:12:38.543Z,5360.00
2023-02-23T09:13:38.548Z,5424.00
2023-02-23T09:14:38.514Z,5480.00
2023-02-23T09:15:38.542Z,5564.00
2023-02-23T09:16:38.514Z,5700.00
2023-02-23T09:17:38.499Z,5908.00
2023-02-23T09:18:38.476Z,6036.00
2023-02-23T09:19:38.477Z,6196.00
2023-02-23T09:20:38.442Z,6396.00
2023-02-23T09:21:38.432Z,6536.00
2023-02-23T09:22:38.433Z,6556.00
2023-02-23T09:23:38.409Z,6564.00
2023-02-23T09:24:38.451Z,6528.00
2023-02-23T09:25:38.395Z,6380.00
2023-02-23T09:26:38.377Z,6356.00
2023-02-23T09:27:38.371Z,6500.00
2023-02-23T09:28:38.354Z,6696.00
2023-02-23T09:29:38.352Z,7136.00
2023-02-23T09:30:38.383Z,7368.00
2023-02-23T09:31:38.434Z,7208.00
2023-02-23T09:32:38.350Z,7040.00
2023-02-23T09:33:38.340Z,6952.00
2023-02-23T09:34:38.335Z,6936.00
2023-02-23T09:35:38.311Z,7008.00
2023-02-23T09:36:38.289Z,7188.00
2023-02-23T09:37:38.257Z,7516.00
2023-02-23T09:38:38.247Z,7744.00
2023-02-23T09:39:39.154Z,7824.00
2023-02-23T09:40:38.229Z,7720.00
2023-02-23T09:41:38.229Z,7548.00
2023-02-23T09:42:38.208Z,7544.00
2023-02-23T09:43:38.191Z,7628.00
2023-02-23T09:44:38.201Z,7728.00
2023-02-23T09:45:38.178Z,8012.00
2023-02-23T09:46:38.184Z,8396.00
2023-02-23T09:47:38.164Z,8644.00
2023-02-23T09:48:38.165Z,8824.00
2023-02-23T09:49:38.345Z,9144.00
2023-02-23T09:50:38.127Z,9120.00
2023-02-23T09:51:38.110Z,9236.00
2023-02-23T09:52:38.477Z,9696.00
2023-02-23T09:53:38.108Z,10284.00
2023-02-23T09:54:38.109Z,10696.00
2023-02-23T09:55:38.063Z,11424.00
2023-02-23T09:56:38.054Z,12644.00
2023-02-23T09:57:38.050Z,13368.00
2023-02-23T09:58:38.040Z,14624.00
2023-02-23T09:59:38.030Z,15296.00
2023-02-23T10:00:38.046Z,16896.00
2023-02-23T10:01:38.052Z,17056.00
2023-02-23T10:02:37.990Z,17088.00
2023-02-23T10:03:37.975Z,17184.00
2023-02-23T10:04:38.001Z,17408.00
2023-02-23T10:05:37.984Z,17664.00
2023-02-23T10:06:37.947Z,18528.00
2023-02-23T10:07:37.939Z,18624.00
2023-02-23T10:08:37.933Z,19328.00
2023-02-23T10:09:37.909Z,18112.00
2023-02-23T10:10:37.977Z,18464.00
2023-02-23T10:11:39.488Z,19232.00
2023-02-23T10:12:37.885Z,19808.00
2023-02-23T10:13:37.879Z,19104.00
2023-02-23T10:14:37.872Z,19872.00
2023-02-23T10:15:37.880Z,20320.00
2023-02-23T10:16:37.869Z,19776.00
2023-02-23T10:17:37.834Z,19072.00
2023-02-23T10:18:46.666Z,16384.00
2023-02-23T10:19:37.812Z,14312.00
2023-02-23T10:20:37.790Z,15872.00
2023-02-23T10:21:37.931Z,12864.00
2023-02-23T10:22:37.791Z,13480.00
2023-02-23T10:23:37.760Z,14020.00
2023-02-23T10:24:37.746Z,15060.00
2023-02-23T10:25:37.760Z,14096.00
2023-02-23T10:26:37.741Z,13084.00
2023-02-23T10:27:37.782Z,12896.00
2023-02-23T10:28:37.734Z,12624.00
2023-02-23T10:29:37.766Z,11940.00
2023-02-23T10:30:37.714Z,11336.00
2023-02-23T10:31:37.861Z,10904.00
2023-02-23T10:32:37.746Z,10580.00
2023-02-23T10:33:37.667Z,10436.00
2023-02-23T10:34:37.692Z,10072.00
2023-02-23T10:35:37.678Z,9944.00
2023-02-23T10:36:37.710Z,9888.00
2023-02-23T10:37:37.638Z,9876.00
2023-02-23T10:38:37.668Z,10000.00
2023-02-23T10:39:37.629Z,10060.00
2023-02-23T10:40:37.641Z,10092.00
2023-02-23T10:41:37.587Z,10036.00
2023-02-23T10:42:37.581Z,10032.00
2023-02-23T10:43:37.686Z,10016.00
2023-02-23T10:44:37.558Z,9900.00
2023-02-23T10:45:37.534Z,9788.00
2023-02-23T10:46:37.617Z,9564.00
2023-02-23T10:47:37.569Z,9480.00
2023-02-23T10:48:37.570Z,9420.00
2023-02-23T10:49:37.554Z,9324.00
2023-02-23T10:50:37.558Z,9284.00
2023-02-23T10:51:37.461Z,9284.00
2023-02-23T10:52:41.663Z,9336.00
2023-02-23T10:53:37.543Z,9320.00
2023-02-23T10:54:37.487Z,9268.00
2023-02-23T10:55:37.448Z,9220.00
2023-02-23T10:56:37.431Z,9072.00
2023-02-23T10:57:39.833Z,8888.00
2023-02-23T10:58:37.420Z,8760.00
2023-02-23T10:59:37.375Z,8676.00
2023-02-23T11:00:37.370Z,8528.00
2023-02-23T11:01:40.112Z,8396.00
2023-02-23T11:02:37.472Z,8200.00
2023-02-23T11:03:37.335Z,8104.00
2023-02-23T11:04:37.315Z,7880.00
2023-02-23T11:05:37.302Z,7884.00
2023-02-23T11:06:37.298Z,7928.00
2023-02-23T11:07:37.274Z,7812.00
2023-02-23T11:08:37.296Z,7800.00
2023-02-23T11:09:46.454Z,7724.00
2023-02-23T11:10:38.256Z,7704.00
2023-02-23T11:11:37.236Z,7660.00
2023-02-23T11:12:37.224Z,7620.00
2023-02-23T11:13:37.217Z,7500.00
2023-02-23T11:14:37.218Z,7404.00
2023-02-23T11:15:49.849Z,7440.00
2023-02-23T11:16:38.243Z,7448.00
2023-02-23T11:17:37.179Z,7488.00
2023-02-23T11:18:37.154Z,7532.00
2023-02-23T11:19:37.177Z,7660.00
2023-02-23T11:20:37.147Z,7688.00
2023-02-23T11:21:37.126Z,7656.00
2023-02-23T11:22:37.124Z,7640.00
2023-02-23T11:23:37.122Z,7672.00
2023-02-23T11:24:37.084Z,7824.00
2023-02-23T11:25:37.129Z,7784.00
2023-02-23T11:26:37.114Z,7808.00
2023-02-23T11:27:37.998Z,7652.00
2023-02-23T11:28:37.059Z,7456.00
2023-02-23T11:29:37.044Z,7296.00
2023-02-23T11:30:37.076Z,7152.00
2023-02-23T11:31:37.162Z,6908.00
2023-02-23T11:32:37.024Z,6748.00
2023-02-23T11:33:36.990Z,6628.00
2023-02-23T11:34:37.012Z,6424.00
2023-02-23T11:35:36.970Z,6316.00
2023-02-23T11:36:36.982Z,6420.00
2023-02-23T11:37:39.623Z,6684.00
2023-02-23T11:38:36.943Z,6844.00
2023-02-23T11:39:36.930Z,7032.00
2023-02-23T11:40:36.917Z,7088.00
2023-02-23T11:41:36.978Z,7140.00
2023-02-23T11:42:36.908Z,7092.00
2023-02-23T11:43:36.883Z,6964.00
2023-02-23T11:44:36.909Z,7348.00
2023-02-23T11:45:36.881Z,7436.00
2023-02-23T11:46:36.893Z,7380.00
2023-02-23T11:47:36.850Z,7256.00
2023-02-23T11:48:36.860Z,6688.00
2023-02-23T11:49:36.825Z,6416.00
2023-02-23T11:50:36.815Z,6488.00
2023-02-23T11:51:36.817Z,6496.00
2023-02-23T11:52:36.805Z,6664.00
2023-02-23T11:53:36.785Z,6768.00
2023-02-23T11:54:36.775Z,7152.00
2023-02-23T11:55:36.753Z,7292.00
2023-02-23T11:56:36.820Z,7160.00
2023-02-23T11:57:36.788Z,6540.00
2023-02-23T11:58:36.761Z,6224.00
2023-02-23T11:59:36.838Z,6288.00
2023-02-23T12:00:36.853Z,6356.00
2023-02-23T12:01:36.692Z,6416.00
2023-02-23T12:02:36.910Z,6236.00
2023-02-23T12:03:36.694Z,6264.00
2023-02-23T12:04:38.093Z,6204.00
2023-02-23T12:05:36.652Z,6260.00
2023-02-23T12:06:36.759Z,6024.00
2023-02-23T12:07:36.632Z,5880.00
2023-02-23T12:08:36.648Z,6104.00
2023-02-23T12:09:36.610Z,6248.00
2023-02-23T12:10:36.623Z,6348.00
2023-02-23T12:11:36.602Z,6396.00
2023-02-23T12:12:36.576Z,6296.00
2023-02-23T12:13:36.603Z,6200.00
2023-02-23T12:14:36.563Z,6124.00
2023-02-23T12:15:36.550Z,6064.00
2023-02-23T12:16:36.674Z,6016.00
2023-02-23T12:17:36.628Z,5904.00
2023-02-23T12:18:36.515Z,5824.00
2023-02-23T12:19:37.527Z,5712.00
2023-02-23T12:20:36.493Z,5624.00
2023-02-23T12:21:36.478Z,5604.00
2023-02-23T12:22:36.464Z,5588.00
2023-02-23T12:23:36.471Z,5516.00
2023-02-23T12:24:36.471Z,5504.00
2023-02-23T12:25:36.443Z,5392.00
2023-02-23T12:26:36.419Z,5332.00
2023-02-23T12:27:36.420Z,5276.00
2023-02-23T12:28:36.413Z,5208.00
2023-02-23T12:29:36.423Z,5128.00
2023-02-23T12:30:36.436Z,4980.00
2023-02-23T12:31:36.404Z,4776.00
2023-02-23T12:32:36.395Z,4648.00
2023-02-23T12:33:36.347Z,4552.00
2023-02-23T12:34:36.330Z,4496.00
2023-02-23T12:35:36.321Z,4456.00
2023-02-23T12:36:36.326Z,4440.00
2023-02-23T12:37:36.297Z,4480.00
2023-02-23T12:38:36.295Z,4536.00